createdAt,value
2019-03-18T00:00:46.191Z,76.91
2019-03-18T00:01:46.152Z,77.15
2019-03-18T00:02:46.100Z,77.36
2019-03-18T00:03:46.091Z,78.05
2019-03-18T00:04:46.085Z,78.09
2019-03-18T00:05:46.073Z,77.36
2019-03-18T00:06:46.060Z,76.74
2019-03-18T00:07:46.176Z,76.84
2019-03-18T00:08:46.042Z,76.53
2019-03-18T00:09:46.025Z,76.02
2019-03-18T00:10:46.016Z,74.77
2019-03-18T00:11:46.018Z,74.77
2019-03-18T00:12:45.997Z,75.09
2019-03-18T00:13:45.987Z,74.46
2019-03-18T00:14:45.969Z,74.57
2019-03-18T00:15:45.981Z,74.88
2019-03-18T00:16:46.010Z,75.09
2019-03-18T00:17:45.939Z,74.57
2019-03-18T00:18:45.934Z,74.36
2019-03-18T00:19:45.917Z,74.05
2019-03-18T00:20:45.910Z,74.67
2019-03-18T00:21:45.907Z,74.67
2019-03-18T00:22:46.126Z,74.77
2019-03-18T00:23:45.887Z,74.88
2019-03-18T00:24:45.863Z,74.98
2019-03-18T00:25:45.854Z,75.29
2019-03-18T00:26:45.840Z,75.29
2019-03-18T00:27:45.834Z,74.98
2019-03-18T00:28:45.821Z,75.29
2019-03-18T00:29:45.811Z,75.19
2019-03-18T00:30:45.820Z,75.50
2019-03-18T00:31:45.800Z,75.71
2019-03-18T00:32:45.781Z,76.12
2019-03-18T00:33:45.765Z,75.32
2019-03-18T00:34:45.753Z,75.60
2019-03-18T00:35:45.746Z,75.53
2019-03-18T00:36:45.736Z,75.60
2019-03-18T00:37:45.731Z,75.95
2019-03-18T00:38:45.716Z,75.84
2019-03-18T00:39:45.701Z,75.63
2019-03-18T00:40:45.711Z,75.22
2019-03-18T00:41:45.678Z,75.63
2019-03-18T00:42:45.669Z,76.05
2019-03-18T00:43:45.659Z,76.15
2019-03-18T00:44:45.693Z,76.98
2019-03-18T00:45:45.633Z,76.88
2019-03-18T00:46:45.634Z,76.05
2019-03-18T00:47:45.619Z,75.63
2019-03-18T00:48:45.610Z,75.95
2019-03-18T00:49:45.608Z,75.63
2019-03-18T00:50:45.584Z,75.63
2019-03-18T00:51:45.571Z,75.63
2019-03-18T00:52:45.577Z,75.74
2019-03-18T00:53:45.553Z,75.63
2019-03-18T00:54:45.610Z,75.95
2019-03-18T00:55:45.529Z,75.95
2019-03-18T00:56:45.519Z,76.09
2019-03-18T00:57:45.528Z,76.15
2019-03-18T00:58:45.491Z,76.57
2019-03-18T00:59:45.486Z,76.88
2019-03-18T01:00:45.472Z,76.67
2019-03-18T01:01:45.465Z,76.67
2019-03-18T01:02:45.448Z,76.57
2019-03-18T01:03:45.451Z,76.46
2019-03-18T01:04:45.432Z,76.46
2019-03-18T01:05:45.427Z,76.98
2019-03-18T01:06:45.448Z,76.88
2019-03-18T01:07:45.394Z,76.78
2019-03-18T01:08:45.451Z,76.78
2019-03-18T01:09:45.375Z,76.67
2019-03-18T01:10:45.366Z,76.88
2019-03-18T01:11:45.358Z,76.46
2019-03-18T01:12:45.341Z,75.88
2019-03-18T01:13:45.341Z,75.98
2019-03-18T01:14:45.334Z,76.09
2019-03-18T01:15:45.312Z,76.67
2019-03-18T01:16:45.302Z,76.61
2019-03-18T01:17:45.297Z,76.57
2019-03-18T01:18:45.287Z,76.40
2019-03-18T01:19:45.267Z,76.36
2019-03-18T01:20:45.263Z,76.46
2019-03-18T01:21:45.247Z,76.26
2019-03-18T01:22:45.239Z,76.09
2019-03-18T01:23:45.239Z,76.36
2019-03-18T01:24:45.218Z,76.71
2019-03-18T01:25:45.202Z,76.88
2019-03-18T01:26:45.191Z,77.12
2019-03-18T01:27:45.187Z,77.33
2019-03-18T01:28:45.292Z,77.19
2019-03-18T01:29:45.163Z,77.09
2019-03-18T01:30:45.242Z,76.98
2019-03-18T01:31:45.153Z,77.29
2019-03-18T01:32:45.137Z,77.85
2019-03-18T01:33:45.132Z,77.85
2019-03-18T01:34:45.111Z,77.95
2019-03-18T01:35:45.096Z,77.85
2019-03-18T01:36:45.086Z,77.71
2019-03-18T01:37:45.071Z,77.50
2019-03-18T01:38:45.077Z,78.16
2019-03-18T01:39:45.054Z,77.61
2019-03-18T01:40:45.040Z,77.44
2019-03-18T01:41:45.032Z,77.71
2019-03-18T01:42:45.019Z,78.33
2019-03-18T01:43:45.063Z,78.16
2019-03-18T01:44:44.998Z,78.54
2019-03-18T01:45:44.987Z,78.27
2019-03-18T01:46:44.992Z,78.47
2019-03-18T01:47:44.976Z,78.68
2019-03-18T01:48:44.962Z,78.27
2019-03-18T01:49:44.945Z,78.47
2019-03-18T01:50:44.961Z,79.10
2019-03-18T01:51:44.924Z,77.64
2019-03-18T01:52:44.911Z,78.06
2019-03-18T01:53:44.913Z,77.85
2019-03-18T01:54:44.893Z,78.06
2019-03-18T01:55:44.883Z,78.58
2019-03-18T01:56:44.866Z,77.95
2019-03-18T01:57:44.874Z,77.54
2019-03-18T01:58:44.856Z,77.54
2019-03-18T01:59:44.835Z,77.54
2019-03-18T02:00:44.825Z,77.44
2019-03-18T02:01:44.812Z,77.44
2019-03-18T02:02:44.801Z,76.81
2019-03-18T02:03:44.801Z,77.23
2019-03-18T02:04:44.783Z,75.88
2019-03-18T02:05:44.770Z,75.67
2019-03-18T02:06:44.758Z,76.19
2019-03-18T02:07:44.746Z,75.26
2019-03-18T02:08:44.748Z,75.46
2019-03-18T02:09:44.727Z,75.67
2019-03-18T02:10:44.717Z,75.98
2019-03-18T02:11:44.711Z,75.78
2019-03-18T02:12:44.735Z,75.26
2019-03-18T02:13:44.709Z,74.84
2019-03-18T02:14:44.741Z,75.26
2019-03-18T02:15:53.363Z,75.15
2019-03-18T02:16:45.668Z,75.57
2019-03-18T02:17:44.641Z,75.46
2019-03-18T02:18:44.699Z,75.15
2019-03-18T02:19:44.619Z,75.09
2019-03-18T02:20:44.615Z,75.60
2019-03-18T02:21:44.602Z,75.88
2019-03-18T02:22:44.587Z,75.78
2019-03-18T02:23:44.610Z,75.26
2019-03-18T02:24:44.563Z,75.19
2019-03-18T02:25:44.555Z,74.67
2019-03-18T02:26:44.543Z,75.50
2019-03-18T02:27:44.539Z,74.98
2019-03-18T02:28:47.266Z,75.09
2019-03-18T02:29:44.520Z,75.50
2019-03-18T02:30:44.516Z,75.29
2019-03-18T02:31:44.517Z,75.60
2019-03-18T02:32:44.478Z,76.02
2019-03-18T02:33:44.468Z,76.23
2019-03-18T02:34:44.600Z,76.12
2019-03-18T02:35:44.449Z,76.23
2019-03-18T02:36:44.516Z,76.33
2019-03-18T02:37:44.439Z,75.92
2019-03-18T02:38:44.417Z,76.54
2019-03-18T02:39:44.411Z,76.85
2019-03-18T02:40:44.398Z,76.33
2019-03-18T02:41:44.446Z,76.75
2019-03-18T02:42:44.372Z,76.75
2019-03-18T02:43:44.365Z,76.75
2019-03-18T02:44:44.350Z,76.33
2019-03-18T02:45:44.337Z,76.43
2019-03-18T02:46:44.337Z,75.60
2019-03-18T02:47:44.318Z,75.29
2019-03-18T02:48:44.313Z,75.09
2019-03-18T02:49:44.759Z,75.92
2019-03-18T02:50:44.288Z,75.81
2019-03-18T02:51:44.273Z,75.81
2019-03-18T02:52:44.264Z,76.16
2019-03-18T02:53:44.252Z,75.81
2019-03-18T02:54:44.245Z,75.29
2019-03-18T02:55:44.235Z,75.71
2019-03-18T02:56:44.440Z,75.29
2019-03-18T02:57:44.215Z,74.19
2019-03-18T02:58:44.209Z,74.19
2019-03-18T02:59:44.216Z,74.19
2019-03-18T03:00:44.176Z,73.77
2019-03-18T03:01:44.293Z,74.50
2019-03-18T03:02:44.160Z,74.71
2019-03-18T03:03:44.159Z,74.40
2019-03-18T03:04:44.143Z,74.05
2019-03-18T03:05:44.135Z,74.50
2019-03-18T03:06:44.114Z,74.29
2019-03-18T03:07:44.144Z,74.19
2019-03-18T03:08:44.089Z,73.67
2019-03-18T03:09:44.091Z,73.57
2019-03-18T03:10:44.069Z,73.88
2019-03-18T03:11:44.060Z,74.19
2019-03-18T03:12:44.056Z,73.88
2019-03-18T03:13:44.035Z,74.19
2019-03-18T03:14:44.032Z,73.57
2019-03-18T03:15:44.023Z,73.46
2019-03-18T03:16:44.003Z,73.25
2019-03-18T03:17:44.003Z,73.70
2019-03-18T03:18:43.991Z,74.08
2019-03-18T03:19:43.973Z,73.88
2019-03-18T03:20:43.962Z,74.40
2019-03-18T03:21:43.955Z,74.74
2019-03-18T03:22:43.942Z,74.32
2019-03-18T03:23:43.929Z,74.81
2019-03-18T03:24:43.920Z,75.23
2019-03-18T03:25:43.936Z,74.74
2019-03-18T03:26:43.906Z,74.40
2019-03-18T03:27:43.888Z,73.91
2019-03-18T03:28:43.879Z,74.08
2019-03-18T03:29:43.884Z,73.57
2019-03-18T03:30:43.867Z,74.32
2019-03-18T03:31:43.846Z,73.80
2019-03-18T03:32:43.852Z,73.80
2019-03-18T03:33:43.821Z,74.43
2019-03-18T03:34:43.816Z,73.88
2019-03-18T03:35:43.798Z,74.11
2019-03-18T03:36:43.785Z,73.70
2019-03-18T03:37:43.780Z,74.22
2019-03-18T03:38:43.766Z,74.53
2019-03-18T03:39:43.760Z,73.91
2019-03-18T03:40:44.716Z,74.53
2019-03-18T03:41:43.734Z,74.11
2019-03-18T03:42:43.723Z,74.84
2019-03-18T03:43:43.709Z,74.01
2019-03-18T03:44:43.712Z,73.39
2019-03-18T03:45:43.711Z,73.28
2019-03-18T03:46:44.200Z,73.39
2019-03-18T03:47:43.746Z,73.49
2019-03-18T03:48:43.660Z,73.60
2019-03-18T03:49:43.658Z,73.28
2019-03-18T03:50:43.639Z,74.32
2019-03-18T03:51:43.629Z,73.91
2019-03-18T03:52:43.750Z,74.53
2019-03-18T03:53:43.611Z,74.22
2019-03-18T03:54:43.603Z,74.22
2019-03-18T03:55:44.179Z,73.91
2019-03-18T03:56:43.582Z,73.18
2019-03-18T03:57:43.559Z,74.11
2019-03-18T03:58:43.552Z,73.70
2019-03-18T03:59:43.571Z,73.49
2019-03-18T04:00:43.525Z,73.18
2019-03-18T04:01:43.520Z,73.91
2019-03-18T04:02:43.606Z,74.01
2019-03-18T04:03:43.496Z,74.43
2019-03-18T04:04:43.484Z,73.28
2019-03-18T04:05:43.501Z,74.05
2019-03-18T04:06:43.462Z,74.57
2019-03-18T04:07:43.459Z,74.43
2019-03-18T04:08:43.441Z,74.05
2019-03-18T04:09:43.466Z,74.36
2019-03-18T04:10:43.432Z,74.53
2019-03-18T04:11:43.426Z,74.32
2019-03-18T04:12:43.396Z,74.32
2019-03-18T04:13:43.386Z,73.94
2019-03-18T04:14:43.382Z,73.63
2019-03-18T04:15:43.384Z,74.15
2019-03-18T04:16:49.797Z,74.22
2019-03-18T04:17:44.339Z,73.94
2019-03-18T04:18:43.352Z,74.32
2019-03-18T04:19:43.324Z,74.46
2019-03-18T04:20:43.345Z,74.46
2019-03-18T04:21:43.299Z,74.67
2019-03-18T04:22:43.286Z,74.88
2019-03-18T04:23:43.279Z,75.19
2019-03-18T04:24:43.338Z,75.40
2019-03-18T04:25:43.293Z,75.40
2019-03-18T04:26:43.267Z,75.29
2019-03-18T04:27:43.234Z,74.88
2019-03-18T04:28:43.234Z,75.40
2019-03-18T04:29:43.216Z,75.29
2019-03-18T04:30:43.209Z,75.50
2019-03-18T04:31:43.270Z,74.98
2019-03-18T04:32:43.185Z,74.98
2019-03-18T04:33:43.358Z,74.67
2019-03-18T04:34:43.157Z,75.29
2019-03-18T04:35:43.157Z,75.60
2019-03-18T04:36:43.137Z,75.50
2019-03-18T04:37:43.121Z,75.40
2019-03-18T04:38:43.120Z,75.81
2019-03-18T04:39:43.116Z,76.12
2019-03-18T04:40:43.121Z,76.33
2019-03-18T04:41:43.077Z,76.33
2019-03-18T04:42:43.071Z,76.33
2019-03-18T04:43:43.057Z,76.54
2019-03-18T04:44:43.048Z,76.43
2019-03-18T04:45:43.043Z,77.16
2019-03-18T04:46:43.029Z,77.26
2019-03-18T04:47:43.015Z,77.58
2019-03-18T04:48:43.006Z,77.37
2019-03-18T04:49:43.022Z,77.37
2019-03-18T04:50:43.013Z,77.78
2019-03-18T04:51:42.972Z,77.37
2019-03-18T04:52:42.972Z,77.26
2019-03-18T04:53:42.974Z,77.58
2019-03-18T04:54:42.950Z,78.30
2019-03-18T04:55:42.945Z,78.51
2019-03-18T04:56:42.930Z,78.41
2019-03-18T04:57:42.908Z,78.92
2019-03-18T04:58:42.892Z,77.99
2019-03-18T04:59:42.886Z,78.41
2019-03-18T05:00:42.879Z,78.51
2019-03-18T05:01:42.865Z,78.61
2019-03-18T05:02:42.850Z,79.03
2019-03-18T05:03:42.838Z,79.06
2019-03-18T05:04:42.882Z,79.13
2019-03-18T05:05:42.828Z,79.06
2019-03-18T05:06:42.805Z,79.48
2019-03-18T05:07:42.795Z,79.17
2019-03-18T05:08:42.787Z,79.17
2019-03-18T05:09:42.785Z,79.58
2019-03-18T05:10:42.822Z,79.69
2019-03-18T05:11:42.771Z,79.80
2019-03-18T05:12:42.744Z,80.32
2019-03-18T05:13:42.772Z,80.38
2019-03-18T05:14:42.743Z,80.83
2019-03-18T05:15:42.712Z,80.63
2019-03-18T05:16:42.703Z,80.52
2019-03-18T05:17:42.695Z,81.15
2019-03-18T05:18:42.719Z,80.63
2019-03-18T05:19:42.681Z,80.73
2019-03-18T05:20:42.681Z,80.94
2019-03-18T05:21:42.651Z,80.73
2019-03-18T05:22:42.710Z,80.63
2019-03-18T05:23:42.622Z,80.42
2019-03-18T05:24:42.614Z,80.83
2019-03-18T05:25:42.632Z,81.15
2019-03-18T05:26:42.592Z,80.42
2019-03-18T05:27:42.589Z,80.42
2019-03-18T05:28:42.583Z,80.52
2019-03-18T05:29:42.561Z,80.52
2019-03-18T05:30:42.559Z,80.83
2019-03-18T05:31:42.545Z,80.83
2019-03-18T05:32:42.528Z,80.63
2019-03-18T05:33:42.513Z,80.52
2019-03-18T05:34:42.577Z,80.94
2019-03-18T05:35:42.522Z,80.63
2019-03-18T05:36:42.492Z,80.42
2019-03-18T05:37:42.489Z,81.15
2019-03-18T05:38:42.464Z,81.04
2019-03-18T05:39:42.451Z,81.56
2019-03-18T05:40:42.440Z,81.08
2019-03-18T05:41:42.439Z,81.25
2019-03-18T05:42:42.426Z,81.35
2019-03-18T05:43:42.414Z,81.49
2019-03-18T05:44:42.397Z,81.04
2019-03-18T05:45:42.386Z,81.08
2019-03-18T05:46:42.385Z,81.08
2019-03-18T05:47:42.363Z,81.08
2019-03-18T05:48:42.353Z,81.29
2019-03-18T05:49:42.353Z,81.29
2019-03-18T05:50:42.345Z,81.39
2019-03-18T05:51:42.337Z,81.29
2019-03-18T05:52:42.320Z,81.18
2019-03-18T05:53:42.298Z,80.87
2019-03-18T05:54:42.295Z,81.08
2019-03-18T05:55:42.314Z,81.08
2019-03-18T05:56:42.268Z,80.98
2019-03-18T05:57:42.259Z,80.98
2019-03-18T05:58:42.262Z,80.56
2019-03-18T05:59:42.249Z,80.32
2019-03-18T06:00:42.246Z,80.63
2019-03-18T06:01:42.219Z,81.04
2019-03-18T06:02:42.208Z,80.63
2019-03-18T06:03:42.190Z,80.83
2019-03-18T06:04:42.178Z,81.18
2019-03-18T06:05:42.168Z,81.04
2019-03-18T06:06:42.160Z,80.87
2019-03-18T06:07:42.148Z,81.04
2019-03-18T06:08:42.139Z,80.42
2019-03-18T06:09:42.131Z,80.83
2019-03-18T06:10:42.115Z,81.04
2019-03-18T06:11:42.122Z,80.42
2019-03-18T06:12:42.099Z,79.90
2019-03-18T06:13:42.104Z,80.32
2019-03-18T06:14:42.073Z,79.80
2019-03-18T06:15:42.061Z,79.69
2019-03-18T06:16:42.094Z,80.52
2019-03-18T06:17:51.743Z,80.21
2019-03-18T06:18:43.036Z,80.11
2019-03-18T06:19:42.023Z,79.58
2019-03-18T06:20:42.061Z,79.06
2019-03-18T06:21:42.030Z,79.69
2019-03-18T06:22:41.992Z,78.96
2019-03-18T06:23:41.974Z,79.38
2019-03-18T06:24:41.964Z,78.96
2019-03-18T06:25:41.957Z,80.21
2019-03-18T06:26:41.962Z,80.11
2019-03-18T06:27:41.934Z,80.00
2019-03-18T06:28:41.928Z,79.86
2019-03-18T06:29:41.914Z,80.21
2019-03-18T06:30:41.951Z,79.69
2019-03-18T06:31:41.971Z,80.49
2019-03-18T06:32:41.961Z,80.28
2019-03-18T06:33:41.867Z,80.49
2019-03-18T06:34:41.867Z,80.49
2019-03-18T06:35:41.887Z,79.34
2019-03-18T06:36:41.971Z,79.03
2019-03-18T06:37:41.845Z,78.82
2019-03-18T06:38:41.840Z,78.92
2019-03-18T06:39:41.802Z,78.61
2019-03-18T06:40:41.792Z,78.30
2019-03-18T06:41:41.796Z,78.61
2019-03-18T06:42:41.839Z,77.99
2019-03-18T06:43:41.758Z,77.89
2019-03-18T06:44:41.759Z,77.64
2019-03-18T06:45:41.738Z,77.44
2019-03-18T06:46:41.748Z,77.64
2019-03-18T06:47:41.723Z,78.30
2019-03-18T06:48:41.705Z,77.44
2019-03-18T06:49:41.689Z,77.44
2019-03-18T06:50:41.679Z,77.02
2019-03-18T06:51:41.676Z,77.12
2019-03-18T06:52:41.685Z,77.33
2019-03-18T06:53:41.647Z,77.54
2019-03-18T06:54:41.636Z,77.23
2019-03-18T06:55:41.708Z,76.71
2019-03-18T06:56:41.758Z,76.50
2019-03-18T06:57:41.607Z,75.67
2019-03-18T06:58:41.594Z,75.67
2019-03-18T06:59:41.591Z,76.40
2019-03-18T07:00:41.599Z,76.61
2019-03-18T07:01:41.571Z,75.05
2019-03-18T07:02:41.554Z,75.78
2019-03-18T07:03:41.596Z,75.67
2019-03-18T07:04:41.527Z,76.19
2019-03-18T07:05:41.517Z,75.95
2019-03-18T07:06:41.514Z,75.23
2019-03-18T07:07:41.503Z,75.85
2019-03-18T07:08:41.486Z,75.88
2019-03-18T07:09:41.474Z,76.06
2019-03-18T07:10:41.486Z,75.43
2019-03-18T07:11:41.473Z,75.23
2019-03-18T07:12:41.438Z,75.12
2019-03-18T07:13:41.431Z,75.43
2019-03-18T07:14:41.420Z,75.54
2019-03-18T07:15:41.411Z,75.19
2019-03-18T07:16:41.417Z,74.67
2019-03-18T07:17:41.386Z,75.19
2019-03-18T07:18:41.375Z,74.57
2019-03-18T07:19:41.388Z,74.36
2019-03-18T07:20:41.351Z,73.74
2019-03-18T07:21:41.341Z,74.40
2019-03-18T07:22:41.333Z,74.36
2019-03-18T07:23:41.328Z,74.46
2019-03-18T07:24:41.307Z,74.77
2019-03-18T07:25:41.350Z,75.46
2019-03-18T07:26:41.287Z,74.77
2019-03-18T07:27:41.278Z,74.74
2019-03-18T07:28:41.267Z,74.11
2019-03-18T07:29:41.265Z,74.43
2019-03-18T07:30:41.247Z,74.11
2019-03-18T07:31:41.232Z,73.49
2019-03-18T07:32:41.230Z,73.18
2019-03-18T07:33:41.243Z,73.18
2019-03-18T07:34:41.208Z,73.60
2019-03-18T07:35:41.197Z,74.11
2019-03-18T07:36:41.179Z,73.77
2019-03-18T07:37:41.179Z,73.98
2019-03-18T07:38:41.158Z,73.80
2019-03-18T07:39:41.150Z,73.46
2019-03-18T07:40:41.136Z,73.15
2019-03-18T07:41:41.132Z,73.25
2019-03-18T07:42:41.116Z,73.36
2019-03-18T07:43:41.114Z,73.15
2019-03-18T07:44:41.093Z,72.94
2019-03-18T07:45:41.086Z,73.25
2019-03-18T07:46:41.074Z,72.11
2019-03-18T07:47:41.157Z,72.39
2019-03-18T07:48:41.049Z,72.08
2019-03-18T07:49:41.046Z,72.19
2019-03-18T07:50:41.028Z,72.39
2019-03-18T07:51:41.021Z,71.67
2019-03-18T07:52:41.028Z,71.36
2019-03-18T07:53:41.010Z,71.53
2019-03-18T07:54:40.989Z,71.15
2019-03-18T07:55:40.978Z,71.53
2019-03-18T07:56:40.970Z,71.33
2019-03-18T07:57:40.969Z,71.50
2019-03-18T07:58:40.946Z,71.50
2019-03-18T07:59:40.931Z,70.67
2019-03-18T08:00:40.959Z,70.15
2019-03-18T08:01:40.914Z,69.43
2019-03-18T08:02:40.906Z,69.32
2019-03-18T08:03:40.893Z,68.29
2019-03-18T08:04:40.878Z,68.05
2019-03-18T08:05:40.869Z,67.22
2019-03-18T08:06:40.860Z,67.74
2019-03-18T08:07:40.861Z,68.26
2019-03-18T08:08:40.957Z,68.67
2019-03-18T08:09:40.823Z,67.64
2019-03-18T08:10:40.817Z,67.12
2019-03-18T08:11:40.837Z,67.85
2019-03-18T08:12:40.813Z,67.12
2019-03-18T08:13:40.785Z,66.81
2019-03-18T08:14:40.784Z,66.09
2019-03-18T08:15:40.764Z,65.47
2019-03-18T08:16:40.800Z,65.36
2019-03-18T08:17:40.754Z,65.47
2019-03-18T08:18:43.473Z,65.16
2019-03-18T08:19:40.721Z,65.36
2019-03-18T08:20:40.735Z,66.29
2019-03-18T08:21:40.731Z,66.16
2019-03-18T08:22:40.756Z,65.64
2019-03-18T08:23:40.677Z,64.81
2019-03-18T08:24:40.664Z,64.92
2019-03-18T08:25:40.681Z,64.58
2019-03-18T08:26:40.659Z,65.44
2019-03-18T08:27:40.642Z,64.78
2019-03-18T08:28:40.621Z,65.20
2019-03-18T08:29:40.618Z,65.61
2019-03-18T08:30:40.602Z,65.89
2019-03-18T08:31:40.616Z,65.37
2019-03-18T08:32:40.591Z,63.62
2019-03-18T08:33:40.577Z,63.93
2019-03-18T08:34:40.566Z,64.00
2019-03-18T08:35:40.554Z,62.97
2019-03-18T08:36:40.539Z,63.07
2019-03-18T08:37:40.548Z,62.84
2019-03-18T08:38:40.553Z,63.12
2019-03-18T08:39:40.505Z,62.71
2019-03-18T08:40:40.489Z,62.26
2019-03-18T08:41:40.479Z,61.41
2019-03-18T08:42:40.474Z,60.97
2019-03-18T08:43:40.461Z,62.72
2019-03-18T08:44:40.713Z,60.22
2019-03-18T08:45:40.436Z,59.47
2019-03-18T08:46:40.424Z,58.14
2019-03-18T08:47:40.436Z,56.70
2019-03-18T08:48:40.521Z,56.59
2019-03-18T08:49:40.398Z,55.66
2019-03-18T08:50:40.389Z,55.87
2019-03-18T08:51:40.368Z,55.66
2019-03-18T08:52:40.381Z,56.38
2019-03-18T08:53:40.377Z,56.90
2019-03-18T08:54:40.340Z,56.59
2019-03-18T08:55:40.325Z,57.10
2019-03-18T08:56:40.315Z,55.36
2019-03-18T08:57:40.304Z,55.98
2019-03-18T08:58:40.308Z,55.87
2019-03-18T08:59:40.295Z,55.87
2019-03-18T09:00:40.276Z,56.38
2019-03-18T09:01:40.262Z,56.49
2019-03-18T09:02:40.262Z,57.10
2019-03-18T09:03:40.266Z,56.90
2019-03-18T09:04:40.232Z,56.38
2019-03-18T09:05:40.222Z,56.18
2019-03-18T09:06:40.214Z,56.49
2019-03-18T09:07:40.203Z,56.18
2019-03-18T09:08:40.196Z,56.31
2019-03-18T09:09:40.178Z,57.44
2019-03-18T09:10:40.164Z,57.54
2019-03-18T09:11:40.160Z,57.31
2019-03-18T09:12:40.152Z,56.21
2019-03-18T09:13:40.149Z,55.59
2019-03-18T09:14:40.133Z,55.80
2019-03-18T09:15:40.120Z,56.21
2019-03-18T09:16:40.106Z,56.44
2019-03-18T09:17:40.090Z,56.23
2019-03-18T09:18:40.087Z,57.16
2019-03-18T09:19:40.069Z,56.95
2019-03-18T09:20:40.064Z,57.26
2019-03-18T09:21:40.044Z,56.95
2019-03-18T09:22:40.036Z,56.23
2019-03-18T09:23:40.041Z,56.13
2019-03-18T09:24:40.018Z,57.34
2019-03-18T09:25:40.011Z,56.31
2019-03-18T09:26:39.991Z,56.10
2019-03-18T09:27:39.979Z,54.94
2019-03-18T09:28:39.978Z,54.64
2019-03-18T09:29:39.966Z,54.72
2019-03-18T09:30:40.045Z,54.17
2019-03-18T09:31:39.946Z,54.07
2019-03-18T09:32:39.926Z,53.56
2019-03-18T09:33:39.923Z,53.66
2019-03-18T09:34:39.905Z,53.94
2019-03-18T09:35:39.896Z,52.59
2019-03-18T09:36:39.890Z,53.81
2019-03-18T09:37:39.921Z,53.41
2019-03-18T09:38:39.860Z,54.21
2019-03-18T09:39:39.851Z,51.95
2019-03-18T09:40:39.841Z,52.46
2019-03-18T09:41:39.829Z,51.64
2019-03-18T09:42:39.817Z,52.66
2019-03-18T09:43:39.806Z,51.74
2019-03-18T09:44:39.795Z,52.36
2019-03-18T09:45:39.787Z,52.25
2019-03-18T09:46:39.778Z,52.69
2019-03-18T09:47:39.761Z,50.74
2019-03-18T09:48:39.754Z,52.40
2019-03-18T09:49:39.747Z,52.09
2019-03-18T09:50:39.735Z,53.35
2019-03-18T09:51:39.726Z,53.77
2019-03-18T09:52:39.712Z,53.79
2019-03-18T09:53:39.698Z,53.92
2019-03-18T09:54:39.695Z,54.46
2019-03-18T09:55:39.681Z,55.59
2019-03-18T09:56:39.668Z,56.65
2019-03-18T09:57:39.652Z,56.13
2019-03-18T09:58:39.662Z,57.06
2019-03-18T09:59:39.812Z,57.29
2019-03-18T10:00:39.625Z,58.55
2019-03-18T10:01:39.619Z,59.69
2019-03-18T10:02:39.629Z,59.79
2019-03-18T10:03:39.593Z,61.65
2019-03-18T10:04:39.593Z,60.93
2019-03-18T10:05:39.577Z,59.58
2019-03-18T10:06:39.557Z,57.11
2019-03-18T10:07:39.584Z,55.87
2019-03-18T10:08:39.548Z,55.95
2019-03-18T10:09:39.555Z,54.41
2019-03-18T10:10:39.535Z,53.78
2019-03-18T10:11:39.509Z,53.68
2019-03-18T10:12:39.487Z,53.58
2019-03-18T10:13:39.481Z,50.78
2019-03-18T10:14:39.500Z,52.55
2019-03-18T10:15:39.474Z,51.39
2019-03-18T10:16:39.449Z,50.98
2019-03-18T10:17:39.431Z,49.54
2019-03-18T10:18:39.456Z,49.82
2019-03-18T10:19:39.429Z,49.33
2019-03-18T10:20:39.417Z,50.24
2019-03-18T10:21:39.478Z,49.62
2019-03-18T10:22:39.379Z,50.21
2019-03-18T10:23:39.413Z,49.88
2019-03-18T10:24:39.387Z,49.78
2019-03-18T10:25:39.369Z,52.53
2019-03-18T10:26:39.332Z,50.66
2019-03-18T10:27:39.325Z,49.51
2019-03-18T10:28:39.310Z,49.71
2019-03-18T10:29:39.306Z,49.48
2019-03-18T10:30:39.294Z,49.07
2019-03-18T10:31:39.281Z,47.30
2019-03-18T10:32:39.271Z,46.07
2019-03-18T10:33:39.277Z,44.84
2019-03-18T10:34:39.251Z,44.76
2019-03-18T10:35:39.239Z,46.40
2019-03-18T10:36:39.225Z,44.96
2019-03-18T10:37:39.215Z,45.07
2019-03-18T10:38:39.207Z,45.27
2019-03-18T10:39:39.195Z,45.50
2019-03-18T10:40:39.191Z,47.96
2019-03-18T10:41:39.181Z,45.81
2019-03-18T10:42:39.183Z,46.11
2019-03-18T10:43:39.226Z,48.47
2019-03-18T10:44:39.135Z,47.86
2019-03-18T10:45:39.126Z,45.91
2019-03-18T10:46:39.118Z,45.68
2019-03-18T10:47:39.106Z,47.04
2019-03-18T10:48:39.099Z,45.68
2019-03-18T10:49:46.077Z,47.20
2019-03-18T10:50:40.071Z,46.15
2019-03-18T10:51:39.068Z,47.46
2019-03-18T10:52:39.050Z,46.03
2019-03-18T10:53:39.039Z,45.10
2019-03-18T10:54:39.061Z,45.60
2019-03-18T10:55:39.028Z,45.09
2019-03-18T10:56:41.077Z,44.47
2019-03-18T10:57:39.028Z,44.68
2019-03-18T10:58:39.193Z,45.72
2019-03-18T10:59:39.167Z,46.05
2019-03-18T11:00:38.968Z,47.28
2019-03-18T11:01:38.962Z,45.97
2019-03-18T11:02:38.990Z,47.12
2019-03-18T11:03:39.164Z,47.74
2019-03-18T11:04:38.917Z,47.34
2019-03-18T11:05:39.012Z,47.67
2019-03-18T11:06:38.895Z,47.70
2019-03-18T11:07:38.938Z,47.72
2019-03-18T11:08:38.877Z,47.82
2019-03-18T11:09:38.946Z,47.85
2019-03-18T11:10:38.887Z,48.18
2019-03-18T11:11:38.855Z,50.44
2019-03-18T11:12:38.834Z,50.67
2019-03-18T11:13:38.834Z,51.09
2019-03-18T11:14:38.844Z,51.93
2019-03-18T11:15:38.821Z,51.42
2019-03-18T11:16:38.792Z,51.93
2019-03-18T11:17:38.774Z,53.58
2019-03-18T11:18:38.766Z,53.09
2019-03-18T11:19:38.756Z,53.27
2019-03-18T11:20:38.752Z,53.17
2019-03-18T11:21:38.732Z,54.10
2019-03-18T11:22:38.723Z,53.89
2019-03-18T11:23:38.713Z,53.27
2019-03-18T11:24:38.699Z,52.11
2019-03-18T11:25:38.715Z,52.71
2019-03-18T11:26:38.684Z,52.50
2019-03-18T11:27:38.668Z,51.86
2019-03-18T11:28:38.654Z,50.83
2019-03-18T11:29:38.653Z,51.73
2019-03-18T11:30:38.634Z,50.40
2019-03-18T11:31:38.627Z,52.86
2019-03-18T11:32:38.612Z,52.35
2019-03-18T11:33:38.615Z,51.61
2019-03-18T11:34:38.598Z,50.68
2019-03-18T11:35:38.581Z,49.76
2019-03-18T11:36:38.577Z,50.16
2019-03-18T11:37:38.558Z,50.43
2019-03-18T11:38:38.565Z,49.40
2019-03-18T11:39:38.701Z,48.86
2019-03-18T11:40:38.528Z,48.97
2019-03-18T11:41:38.780Z,47.92
2019-03-18T11:42:39.047Z,48.00
2019-03-18T11:43:38.561Z,48.61
2019-03-18T11:44:38.486Z,48.00
2019-03-18T11:45:38.474Z,47.28
2019-03-18T11:46:40.569Z,46.77
2019-03-18T11:47:38.455Z,47.08
2019-03-18T11:48:38.461Z,46.05
2019-03-18T11:49:39.775Z,47.28
2019-03-18T11:50:41.291Z,46.67
2019-03-18T11:51:38.588Z,45.43
2019-03-18T11:52:38.396Z,46.89
2019-03-18T11:53:38.395Z,47.20
2019-03-18T11:54:38.375Z,46.17
2019-03-18T11:55:38.384Z,46.48
2019-03-18T11:56:38.866Z,45.68
2019-03-18T11:57:38.343Z,46.09
2019-03-18T11:58:38.331Z,45.99
2019-03-18T11:59:38.318Z,48.04
2019-03-18T12:00:38.547Z,47.86
2019-03-18T12:01:38.935Z,48.04
2019-03-18T12:02:38.843Z,48.04
2019-03-18T12:03:38.283Z,47.53
2019-03-18T12:04:38.284Z,47.74
2019-03-18T12:05:38.259Z,47.63
2019-03-18T12:06:38.256Z,45.89
2019-03-18T12:07:38.236Z,48.25
2019-03-18T12:08:38.226Z,47.12
2019-03-18T12:09:38.218Z,48.04
2019-03-18T12:10:38.221Z,46.81
2019-03-18T12:11:39.437Z,46.09
2019-03-18T12:12:38.367Z,44.35
2019-03-18T12:13:38.511Z,45.37
2019-03-18T12:14:38.405Z,43.52
2019-03-18T12:15:38.148Z,43.73
2019-03-18T12:16:38.133Z,44.76
2019-03-18T12:17:38.146Z,44.71
2019-03-18T12:18:38.121Z,43.38
2019-03-18T12:19:38.110Z,43.98
2019-03-18T12:20:38.112Z,42.22
2019-03-18T12:21:38.081Z,41.89
2019-03-18T12:22:38.112Z,41.87
2019-03-18T12:23:38.497Z,40.52
2019-03-18T12:24:38.343Z,38.86
2019-03-18T12:25:38.047Z,38.64
2019-03-18T12:26:38.025Z,38.13
2019-03-18T12:27:38.024Z,38.34
2019-03-18T12:28:38.012Z,40.97
2019-03-18T12:29:37.998Z,39.53
2019-03-18T12:30:37.982Z,38.39
2019-03-18T12:31:37.978Z,37.75
2019-03-18T12:32:38.247Z,37.33
2019-03-18T12:33:38.065Z,37.14
2019-03-18T12:34:38.290Z,36.10
2019-03-18T12:35:37.927Z,37.31
2019-03-18T12:36:37.919Z,35.99
2019-03-18T12:37:38.916Z,37.51
2019-03-18T12:38:37.970Z,36.08
2019-03-18T12:39:37.890Z,35.99
2019-03-18T12:40:37.875Z,35.17
2019-03-18T12:41:37.967Z,36.21
2019-03-18T12:42:38.661Z,38.06
2019-03-18T12:43:37.842Z,36.32
2019-03-18T12:44:37.823Z,35.92
2019-03-18T12:45:37.809Z,37.96
2019-03-18T12:46:37.834Z,37.65
2019-03-18T12:47:37.802Z,36.12
2019-03-18T12:48:37.784Z,37.75
2019-03-18T12:49:37.770Z,37.36
2019-03-18T12:50:54.464Z,37.67
2019-03-18T12:51:38.754Z,38.67
2019-03-18T12:52:37.765Z,39.45